Time;durP1;ratioP1;P1;durP2;ratioP2;P2;SDS_P1;SDS_P2;PMS_P1;PMS_P2;Temp;Humidity;BMP_temperature;BMP_pressure;BME280_temperature;BME280_humidity;BME280_pressure;Samples;Min_cycle;Max_cycle;Signal;HPM_P1;HPM_P2
2023/06/01 00:02:23;;;;;;;10.75;4.88;;;18.40;99.90;;;;;;5093353;28;20025;-77
2023/06/01 00:04:50;;;;;;;7.28;4.55;;;18.30;99.90;;;;;;5093396;28;20050;-76
2023/06/01 00:07:16;;;;;;;8.45;4.35;;;18.40;99.90;;;;;;5092905;28;20032;-76
2023/06/01 00:09:42;;;;;;;6.97;4.07;;;18.40;99.90;;;;;;5093021;28;20040;-78
2023/06/01 00:12:09;;;;;;;8.30;4.10;;;18.40;99.90;;;;;;5093282;28;20512;-77
2023/06/01 00:14:35;;;;;;;6.57;3.72;;;18.40;99.90;;;;;;5092803;28;20040;-76
2023/06/01 00:17:02;;;;;;;5.13;3.80;;;18.50;99.90;;;;;;5093098;28;20028;-77
2023/06/01 00:19:28;;;;;;;8.07;4.40;;;18.50;99.90;;;;;;5093037;28;20046;-76
2023/06/01 00:21:56;;;;;;;7.93;4.43;;;18.40;99.90;;;;;;5092561;28;20469;-77
2023/06/01 00:24:25;;;;;;;7.05;4.50;;;18.40;99.90;;;;;;5073455;28;20043;-77
2023/06/01 00:26:51;;;;;;;6.05;4.05;;;18.30;99.90;;;;;;5074402;28;20028;-78
2023/06/01 00:29:17;;;;;;;7.70;4.47;;;18.20;99.90;;;;;;5092539;28;20036;-77
2023/06/01 00:31:44;;;;;;;5.60;3.95;;;18.20;99.90;;;;;;5108101;28;20484;-76
2023/06/01 00:34:11;;;;;;;9.75;4.50;;;18.20;99.90;;;;;;5092494;28;20084;-76
2023/06/01 00:36:37;;;;;;;6.18;4.03;;;18.20;99.90;;;;;;5092182;28;20034;-76
2023/06/01 00:39:03;;;;;;;7.82;4.32;;;18.10;99.90;;;;;;5092567;28;20115;-76
2023/06/01 00:41:31;;;;;;;6.40;3.83;;;18.20;99.90;;;;;;5107956;28;20436;-76
2023/06/01 00:43:57;;;;;;;6.47;3.88;;;18.20;99.90;;;;;;5092577;28;20177;-75
2023/06/01 00:46:23;;;;;;;6.30;4.18;;;18.20;99.90;;;;;;5092388;28;20115;-77
2023/06/01 00:48:51;;;;;;;5.43;3.88;;;18.20;99.90;;;;;;5092512;28;20111;-78
2023/06/01 00:51:18;;;;;;;7.72;4.00;;;18.20;99.90;;;;;;5073772;28;20118;-77
2023/06/01 00:53:44;;;;;;;5.88;3.80;;;18.30;99.90;;;;;;5091993;28;20039;-76
2023/06/01 00:56:14;;;;;;;6.20;3.72;;;18.20;99.90;;;;;;5092150;28;20020;-77
2023/06/01 00:58:41;;;;;;;8.38;3.88;;;18.20;99.90;;;;;;5092034;28;20028;-77
2023/06/01 01:01:18;;;;;;;6.20;3.60;;;18.20;99.90;;;;;;5092250;28;20370;-77
2023/06/01 01:03:49;;;;;;;5.22;3.80;;;18.30;99.90;;;;;;5091874;28;20406;-76
2023/06/01 01:06:28;;;;;;;5.88;3.50;;;18.30;99.90;;;;;;5091834;28;20032;-76
2023/06/01 01:09:07;;;;;;;5.32;3.58;;;18.30;99.90;;;;;;5091962;28;20040;-75
2023/06/01 01:11:35;;;;;;;6.50;3.50;;;18.40;99.90;;;;;;5092281;28;20050;-77
2023/06/01 01:14:10;;;;;;;6.80;3.60;;;18.40;99.90;;;;;;5091966;28;20059;-76
2023/06/01 01:16:46;;;;;;;7.30;3.40;;;18.40;99.90;;;;;;5092089;28;20040;-76
2023/06/01 01:19:35;;;;;;;6.28;3.70;;;18.40;99.90;;;;;;5092210;28;20024;-77
2023/06/01 01:22:43;;;;;;;7.95;3.80;;;18.40;99.90;;;;;;5091581;28;20024;-77
2023/06/01 01:25:12;;;;;;;6.85;3.63;;;18.40;99.90;;;;;;5091534;28;20029;-77
2023/06/01 01:28:08;;;;;;;7.68;3.70;;;18.30;99.90;;;;;;5091878;28;20024;-77
2023/06/01 01:30:37;;;;;;;5.28;3.75;;;18.30;99.90;;;;;;5091676;28;20056;-77
2023/06/01 01:33:04;;;;;;;6.40;3.85;;;18.30;99.90;;;;;;5073018;28;20059;-76
2023/06/01 01:35:32;;;;;;;5.18;3.47;;;18.20;99.90;;;;;;5091463;28;20112;-75
2023/06/01 01:37:58;;;;;;;7.07;3.95;;;18.20;99.90;;;;;;5091950;28;20103;-76
2023/06/01 01:40:24;;;;;;;5.97;3.63;;;18.10;99.90;;;;;;5091473;28;20122;-76
2023/06/01 01:42:52;;;;;;;4.85;3.97;;;18.10;99.90;;;;;;5091600;28;20318;-77
2023/06/01 01:45:19;;;;;;;4.82;3.47;;;18.10;99.90;;;;;;5091315;28;20028;-77
2023/06/01 01:47:56;;;;;;;5.90;4.10;;;18.10;99.90;;;;;;5091397;28;20083;-77
2023/06/01 01:50:28;;;;;;;6.60;3.63;;;18.10;99.90;;;;;;5091388;28;20020;-78
2023/06/01 01:52:55;;;;;;;8.02;4.30;;;18.00;99.90;;;;;;5091580;28;20047;-78
2023/06/01 01:55:23;;;;;;;5.30;3.83;;;18.00;99.90;;;;;;5091178;28;20036;-76
2023/06/01 01:57:52;;;;;;;7.57;4.18;;;18.00;99.90;;;;;;5091234;28;20100;-77
2023/06/01 02:00:19;;;;;;;6.97;3.83;;;17.90;99.90;;;;;;5091071;28;20080;-77
2023/06/01 02:02:46;;;;;;;7.82;3.85;;;18.00;99.90;;;;;;5091507;28;20020;-77
2023/06/01 02:05:12;;;;;;;7.88;3.70;;;17.90;99.90;;;;;;5072716;28;20028;-77
2023/06/01 02:07:38;;;;;;;7.38;4.15;;;17.90;99.90;;;;;;5091458;28;20031;-77
2023/06/01 02:10:05;;;;;;;6.63;3.72;;;17.90;99.90;;;;;;5090892;28;20123;-77
2023/06/01 02:12:31;;;;;;;7.32;4.20;;;18.00;99.90;;;;;;5090133;28;20032;-77
2023/06/01 02:14:57;;;;;;;6.45;4.47;;;18.00;99.90;;;;;;5091128;28;20044;-77
2023/06/01 02:17:25;;;;;;;7.35;4.90;;;17.90;99.90;;;;;;5091083;28;20020;-76
2023/06/01 02:19:51;;;;;;;10.07;4.38;;;17.80;99.90;;;;;;5090848;28;20115;-76
2023/06/01 02:22:17;;;;;;;7.55;4.88;;;17.70;99.90;;;;;;5090698;28;20056;-77
2023/06/01 02:24:43;;;;;;;6.78;4.75;;;17.70;99.90;;;;;;5090935;28;20067;-78
2023/06/01 02:27:09;;;;;;;7.03;4.55;;;17.60;99.90;;;;;;5072551;28;20027;-77
2023/06/01 02:29:35;;;;;;;8.52;5.47;;;17.60;99.90;;;;;;5090991;28;20028;-75
2023/06/01 02:32:01;;;;;;;9.27;5.47;;;17.50;99.90;;;;;;5106483;28;20028;-77
2023/06/01 02:34:27;;;;;;;7.30;5.53;;;17.50;99.90;;;;;;5091106;28;20126;-77
2023/06/01 02:36:55;;;;;;;10.20;5.47;;;17.30;99.90;;;;;;5090631;28;20077;-78
2023/06/01 02:39:22;;;;;;;7.43;5.43;;;17.30;99.90;;;;;;5090058;28;20039;-76
2023/06/01 02:41:48;;;;;;;8.32;5.35;;;17.40;99.90;;;;;;5090636;28;20024;-76
2023/06/01 02:44:14;;;;;;;9.70;5.40;;;17.40;99.90;;;;;;5090316;28;20035;-78
2023/06/01 02:46:40;;;;;;;10.73;5.50;;;17.30;99.90;;;;;;5092351;28;20016;-77
2023/06/01 02:49:06;;;;;;;7.95;5.38;;;17.30;99.90;;;;;;5094142;28;20387;-76
2023/06/01 02:51:32;;;;;;;10.82;5.35;;;17.40;99.90;;;;;;5093882;28;20028;-76
2023/06/01 02:53:59;;;;;;;8.95;5.13;;;17.40;99.90;;;;;;5094262;28;20345;-77
2023/06/01 02:56:26;;;;;;;7.30;5.28;;;17.50;99.90;;;;;;5094826;28;20102;-77
2023/06/01 02:58:52;;;;;;;6.38;4.82;;;17.60;99.90;;;;;;5095398;28;20020;-76
2023/06/01 03:01:20;;;;;;;7.93;5.00;;;17.70;99.90;;;;;;5110399;28;20051;-78
2023/06/01 03:03:47;;;;;;;8.10;5.47;;;17.60;99.90;;;;;;5094826;28;20020;-75
2023/06/01 03:06:13;;;;;;;6.53;5.03;;;17.70;99.90;;;;;;5094623;28;20030;-75
2023/06/01 03:08:39;;;;;;;9.18;5.45;;;17.70;99.90;;;;;;5076441;28;20482;-77
2023/06/01 03:11:05;;;;;;;9.60;5.63;;;17.70;99.90;;;;;;5076811;28;20036;-77
2023/06/01 03:13:31;;;;;;;10.43;5.13;;;17.60;99.90;;;;;;5076815;28;20034;-76
2023/06/01 03:15:58;;;;;;;8.20;4.90;;;17.70;99.90;;;;;;5076806;28;20122;-75
2023/06/01 03:18:24;;;;;;;11.07;5.40;;;17.70;99.90;;;;;;5094506;28;20070;-77
2023/06/01 03:20:50;;;;;;;8.80;5.03;;;17.70;99.90;;;;;;5094012;28;20047;-77
2023/06/01 03:23:16;;;;;;;6.43;4.85;;;17.60;99.90;;;;;;5094565;28;20262;-76
2023/06/01 03:25:42;;;;;;;8.40;5.27;;;17.60;99.90;;;;;;5095411;28;20102;-76
2023/06/01 03:28:08;;;;;;;8.02;5.30;;;17.70;99.90;;;;;;5095399;28;20262;-76
2023/06/01 03:30:34;;;;;;;9.23;5.15;;;17.70;99.90;;;;;;5095286;28;20028;-75
2023/06/01 03:33:00;;;;;;;10.20;4.80;;;17.70;99.90;;;;;;5110604;28;20032;-75
2023/06/01 03:35:26;;;;;;;6.75;5.07;;;17.80;99.90;;;;;;5095453;28;20028;-76
2023/06/01 03:37:52;;;;;;;5.55;4.68;;;17.80;99.90;;;;;;5095469;28;20027;-77
2023/06/01 03:40:18;;;;;;;10.25;4.97;;;17.80;99.90;;;;;;5094879;28;20077;-76
2023/06/01 03:42:47;;;;;;;7.95;4.72;;;17.90;99.90;;;;;;5095056;28;20024;-77
2023/06/01 03:45:15;;;;;;;6.43;4.60;;;17.80;99.90;;;;;;5095158;28;20055;-76
2023/06/01 03:47:41;;;;;;;6.70;4.90;;;17.80;99.90;;;;;;5094952;28;20571;-77
2023/06/01 03:50:09;;;;;;;7.85;4.75;;;17.90;99.90;;;;;;5094794;28;20086;-76
2023/06/01 03:52:36;;;;;;;7.13;4.68;;;17.90;99.90;;;;;;5094551;28;20024;-77
2023/06/01 03:55:10;;;;;;;;;;;17.90;99.90;;;;;;5094933;28;20060;-76
2023/06/01 03:57:37;;;;;;;8.15;4.60;;;17.80;99.90;;;;;;5094675;28;20401;-76
2023/06/01 04:00:17;;;;;;;9.95;5.00;;;17.80;99.90;;;;;;5094434;28;20127;-76
2023/06/01 04:03:07;;;;;;;6.95;5.03;;;17.70;99.90;;;;;;5094454;28;20024;-77
2023/06/01 04:05:33;;;;;;;7.80;5.10;;;17.80;99.90;;;;;;5094803;28;20026;-77
2023/06/01 04:07:59;;;;;;;7.90;4.78;;;17.80;99.90;;;;;;5094969;28;20421;-78
2023/06/01 04:10:25;;;;;;;7.60;4.60;;;17.90;99.90;;;;;;5076275;28;20047;-77
2023/06/01 04:12:51;;;;;;;8.23;4.97;;;17.90;99.90;;;;;;5076292;28;20020;-77
2023/06/01 04:15:20;;;;;;;6.65;4.28;;;18.00;99.90;;;;;;5094077;28;20032;-76
2023/06/01 04:17:46;;;;;;;6.90;4.97;;;18.10;99.90;;;;;;5094640;28;20051;-76
2023/06/01 04:20:16;;;;;;;8.55;4.38;;;18.10;99.90;;;;;;5094779;28;20059;-76
2023/06/01 04:22:44;;;;;;;9.75;4.57;;;18.20;99.90;;;;;;5110413;28;20016;-77
2023/06/01 04:25:11;;;;;;;7.47;4.45;;;18.30;99.90;;;;;;5095159;28;20431;-76
2023/06/01 04:27:44;;;;;;;6.95;4.40;;;18.30;99.90;;;;;;5094596;28;20073;-75
2023/06/01 04:30:12;;;;;;;8.38;5.10;;;18.40;99.90;;;;;;5094824;28;20479;-76
2023/06/01 04:32:38;;;;;;;8.48;4.53;;;18.50;99.90;;;;;;5094883;28;20038;-75
2023/06/01 04:35:05;;;;;;;5.78;4.30;;;18.50;99.90;;;;;;5076264;28;20047;-75
2023/06/01 04:37:34;;;;;;;;;;;18.60;99.90;;;;;;5076465;28;20052;-76
2023/06/01 04:40:06;;;;;;;5.32;4.03;;;18.70;99.90;;;;;;5076049;28;20253;-76
2023/06/01 04:42:33;;;;;;;10.95;5.00;;;18.80;99.90;;;;;;5094587;28;20023;-76
2023/06/01 04:45:04;;;;;;;6.38;4.57;;;18.70;99.90;;;;;;5076112;28;20035;-77
2023/06/01 04:47:31;;;;;;;9.45;4.78;;;18.70;99.90;;;;;;5094259;28;20093;-77
2023/06/01 04:49:58;;;;;;;6.95;4.82;;;18.60;99.90;;;;;;5094163;28;20055;-76
2023/06/01 04:52:24;;;;;;;8.35;5.10;;;18.40;99.90;;;;;;5093915;28;20420;-76
2023/06/01 04:54:50;;;;;;;8.07;4.97;;;18.20;99.90;;;;;;5094214;28;20044;-77
2023/06/01 04:57:16;;;;;;;10.48;5.25;;;18.00;99.90;;;;;;5094722;28;20073;-76
2023/06/01 04:59:42;;;;;;;7.15;4.85;;;18.20;99.90;;;;;;5093796;28;20364;-77
2023/06/01 05:02:08;;;;;;;9.13;4.53;;;19.00;99.90;;;;;;5093773;28;20024;-75
2023/06/01 05:04:35;;;;;;;8.38;4.65;;;20.10;99.90;;;;;;5094244;28;20059;-78
2023/06/01 05:07:01;;;;;;;8.00;4.03;;;20.70;99.90;;;;;;5094139;28;20013;-77
2023/06/01 05:09:27;;;;;;;7.70;3.92;;;21.50;99.90;;;;;;5092981;28;20044;-77
2023/06/01 05:11:53;;;;;;;6.88;3.60;;;22.50;99.90;;;;;;5093805;28;20356;-77
2023/06/01 05:14:19;;;;;;;11.38;4.10;;;23.00;99.90;;;;;;5093800;28;20469;-76
2023/06/01 05:16:46;;;;;;;5.30;3.97;;;23.30;99.90;;;;;;5075080;28;20484;-76
2023/06/01 05:19:13;;;;;;;8.43;4.18;;;23.00;99.90;;;;;;5093613;28;20032;-78
2023/06/01 05:21:40;;;;;;;6.90;3.92;;;23.10;99.90;;;;;;5093696;28;20020;-77
2023/06/01 05:24:07;;;;;;;6.90;4.07;;;23.00;99.90;;;;;;5108831;28;20032;-77
2023/06/01 05:26:33;;;;;;;6.47;4.25;;;21.50;99.90;;;;;;5093273;28;20069;-76
2023/06/01 05:28:59;;;;;;;7.63;4.22;;;21.40;99.90;;;;;;5093080;28;20120;-76
2023/06/01 05:31:25;;;;;;;10.07;4.75;;;21.20;99.90;;;;;;5092835;28;20078;-76
2023/06/01 05:33:51;;;;;;;8.43;4.15;;;21.10;99.90;;;;;;5093256;28;20098;-76
2023/06/01 05:36:17;;;;;;;7.03;4.10;;;22.00;99.90;;;;;;5108263;28;20028;-76
2023/06/01 05:38:43;;;;;;;7.88;4.07;;;23.40;99.90;;;;;;5108741;28;20028;-76
2023/06/01 05:41:09;;;;;;;10.55;4.15;;;24.00;99.90;;;;;;5092658;28;20020;-76
2023/06/01 05:43:36;;;;;;;7.40;3.65;;;25.00;99.90;;;;;;5092518;28;20430;-76
2023/06/01 05:46:03;;;;;;;7.43;4.00;;;25.00;99.90;;;;;;5092420;28;20024;-77
2023/06/01 05:48:29;;;;;;;8.02;3.55;;;25.70;99.90;;;;;;5092865;28;20054;-77
2023/06/01 05:50:55;;;;;;;7.72;3.65;;;26.60;99.90;;;;;;5091826;28;20024;-77
2023/06/01 05:53:24;;;;;;;10.50;3.65;;;26.10;99.90;;;;;;5091652;28;20028;-77
2023/06/01 05:55:51;;;;;;;10.20;3.60;;;25.70;99.90;;;;;;5092053;28;20558;-77
2023/06/01 05:58:17;;;;;;;9.60;3.40;;;26.30;99.90;;;;;;5091980;28;20460;-78
2023/06/01 06:00:43;;;;;;;6.07;3.38;;;26.30;99.90;;;;;;5091742;28;20429;-78
2023/06/01 06:03:09;;;;;;;6.95;3.33;;;26.80;99.90;;;;;;5092012;28;20068;-78
2023/06/01 06:05:35;;;;;;;8.32;3.08;;;27.30;99.90;;;;;;5091273;28;20035;-78
2023/06/01 06:08:02;;;;;;;7.53;3.20;;;27.60;99.90;;;;;;5106931;28;20165;-78
2023/06/01 06:10:28;;;;;;;7.63;3.28;;;27.40;99.90;;;;;;5091007;28;20059;-77
2023/06/01 06:12:55;;;;;;;6.63;3.28;;;27.20;99.90;;;;;;5072915;28;20016;-77
2023/06/01 06:15:21;;;;;;;4.90;2.95;;;27.80;99.90;;;;;;5091333;28;20504;-76
2023/06/01 06:17:47;;;;;;;;;;;27.50;99.90;;;;;;5091273;28;20093;-76
2023/06/01 06:20:15;;;;;;;3.85;2.90;;;27.50;99.90;;;;;;5091720;28;19947;-78
2023/06/01 06:22:42;;;;;;;6.38;3.05;;;27.90;99.90;;;;;;5094701;28;20020;-78
2023/06/01 06:25:08;;;;;;;6.68;2.75;;;27.80;99.90;;;;;;5095646;28;20498;-77
2023/06/01 06:27:35;;;;;;;7.25;3.08;;;27.20;99.90;;;;;;5095520;28;20035;-79
2023/06/01 06:30:00;;;;;;;;;;;27.20;99.90;;;;;;5096293;28;20045;-77
2023/06/01 06:32:26;;;;;;;6.07;2.53;;;28.50;99.90;;;;;;5096219;28;19908;-76
2023/06/01 06:34:52;;;;;;;10.80;2.80;;;30.00;99.90;;;;;;5096443;28;20101;-78
2023/06/01 06:37:19;;;;;;;7.15;2.80;;;30.00;99.90;;;;;;5095799;28;20077;-77
2023/06/01 06:39:45;;;;;;;;;;;30.20;99.90;;;;;;5096691;28;20328;-78
2023/06/01 06:42:11;;;;;;;9.63;2.58;;;31.30;99.90;;;;;;5077403;28;19911;-78
2023/06/01 06:44:36;;;;;;;;;;;31.30;99.90;;;;;;5095470;28;20432;-77
2023/06/01 06:47:03;;;;;;;4.88;2.53;;;30.20;99.90;;;;;;5095721;28;19949;-76
2023/06/01 06:49:29;;;;;;;12.00;2.67;;;31.60;99.90;;;;;;5095388;28;20031;-76
2023/06/01 06:51:55;;;;;;;65.15;6.80;;;32.80;99.90;;;;;;5076901;28;20391;-78
2023/06/01 06:54:22;;;;;;;15.75;3.30;;;34.40;99.90;;;;;;5094961;28;20135;-77
2023/06/01 06:56:48;;;;;;;6.97;2.47;;;34.80;99.90;;;;;;5077392;28;20027;-78
2023/06/01 06:59:14;;;;;;;14.48;3.10;;;35.30;99.90;;;;;;5095211;28;20020;-76
2023/06/01 07:01:40;;;;;;;9.70;2.58;;;34.00;99.90;;;;;;5095016;28;20464;-77
2023/06/01 07:04:06;;;;;;;6.78;2.10;;;34.60;99.90;;;;;;5095971;28;20081;-77
2023/06/01 07:06:33;;;;;;;6.78;2.20;;;35.60;99.90;;;;;;5111642;28;20020;-76
2023/06/01 07:09:00;;;;;;;5.28;2.13;;;34.80;99.90;;;;;;5094977;28;20071;-77
2023/06/01 07:11:26;;;;;;;4.57;2.50;;;33.50;99.90;;;;;;5095105;28;20455;-77
2023/06/01 07:13:53;;;;;;;9.93;2.20;;;32.00;99.90;;;;;;5095373;28;20407;-77
2023/06/01 07:16:19;;;;;;;5.20;2.08;;;31.90;99.90;;;;;;5095083;28;20378;-76
2023/06/01 07:18:45;;;;;;;;;;;31.10;99.90;;;;;;5095165;28;20047;-78
2023/06/01 07:21:11;;;;;;;3.92;2.30;;;31.30;99.90;;;;;;5094379;28;20356;-78
2023/06/01 07:23:37;;;;;;;;;;;30.80;99.90;;;;;;5094743;28;20043;-76
2023/06/01 07:26:03;;;;;;;6.32;2.55;;;28.90;99.90;;;;;;5094116;28;19904;-76
2023/06/01 07:28:30;;;;;;;;;;;29.50;99.90;;;;;;5094306;28;20352;-78
2023/06/01 07:30:56;;;;;;;8.20;2.88;;;29.50;99.90;;;;;;5093948;28;19957;-76
2023/06/01 07:33:22;;;;;;;4.93;2.60;;;29.80;99.90;;;;;;5094291;28;20065;-77
2023/06/01 07:35:52;;;;;;;8.43;2.60;;;30.00;99.90;;;;;;5094965;28;20039;-76
2023/06/01 07:38:20;;;;;;;7.47;2.85;;;30.10;99.90;;;;;;5095013;28;20038;-77
2023/06/01 07:40:46;;;;;;;6.95;2.65;;;29.50;99.90;;;;;;5094449;28;20024;-77
2023/06/01 07:43:12;;;;;;;6.60;2.80;;;29.80;99.90;;;;;;5075579;28;20447;-77
2023/06/01 07:45:40;;;;;;;6.43;2.65;;;30.00;99.90;;;;;;5093606;28;20024;-78
2023/06/01 07:48:06;;;;;;;6.78;2.97;;;30.00;99.90;;;;;;5093951;28;20437;-78
2023/06/01 07:50:32;;;;;;;3.63;2.60;;;29.30;99.90;;;;;;5093514;28;20130;-77
2023/06/01 07:52:59;;;;;;;5.70;2.70;;;28.60;99.90;;;;;;5093616;28;20023;-76
2023/06/01 07:55:24;;;;;;;;;;;28.60;99.90;;;;;;5094134;28;20539;-76
2023/06/01 07:57:52;;;;;;;5.20;3.03;;;28.50;99.90;;;;;;5093585;28;20021;-78
2023/06/01 08:00:18;;;;;;;8.65;3.30;;;29.30;99.90;;;;;;5093285;28;20383;-76
2023/06/01 08:02:45;;;;;;;5.90;3.70;;;30.10;99.90;;;;;;5093205;28;20028;-75
2023/06/01 08:05:12;;;;;;;9.00;3.92;;;30.10;99.90;;;;;;5093324;28;20107;-77
2023/06/01 08:07:42;;;;;;;11.27;4.35;;;30.50;99.90;;;;;;5092860;28;20043;-75
2023/06/01 08:10:09;;;;;;;10.10;4.35;;;30.40;99.90;;;;;;5092956;28;20425;-75
2023/06/01 08:12:38;;;;;;;10.43;4.28;;;30.10;99.90;;;;;;5092764;28;20035;-75
2023/06/01 08:15:05;;;;;;;9.85;4.05;;;29.90;99.90;;;;;;5092855;28;20070;-76
2023/06/01 08:17:32;;;;;;;8.48;4.32;;;30.20;99.90;;;;;;5093077;28;20028;-76
2023/06/01 08:19:58;;;;;;;13.32;4.25;;;30.40;99.90;;;;;;5092866;28;20028;-77
2023/06/01 08:22:24;;;;;;;7.88;3.65;;;30.20;99.90;;;;;;5093069;28;20028;-76
2023/06/01 08:24:51;;;;;;;7.93;4.00;;;29.30;99.90;;;;;;5075195;28;20059;-79
2023/06/01 08:27:18;;;;;;;10.00;3.88;;;29.40;99.90;;;;;;5075009;28;20024;-78
2023/06/01 08:29:47;;;;;;;12.63;4.57;;;29.60;99.90;;;;;;5093154;28;20024;-76
2023/06/01 08:32:13;;;;;;;8.40;4.18;;;29.50;99.90;;;;;;5093021;28;20016;-77
2023/06/01 08:34:40;;;;;;;8.05;3.80;;;29.30;99.90;;;;;;5093011;28;20039;-78
2023/06/01 08:37:06;;;;;;;;;;;29.20;99.90;;;;;;5093171;28;20018;-77
2023/06/01 08:39:33;;;;;;;9.45;4.07;;;29.20;99.90;;;;;;5092791;28;20336;-77
2023/06/01 08:42:22;;;;;;;8.95;3.92;;;29.60;99.90;;;;;;5092681;28;20474;-76
2023/06/01 08:44:53;;;;;;;9.27;4.30;;;29.90;99.90;;;;;;5092124;28;20186;-76
2023/06/01 08:47:21;;;;;;;8.93;4.30;;;30.00;99.90;;;;;;5093013;28;20044;-77
2023/06/01 08:49:48;;;;;;;6.57;3.83;;;30.30;99.90;;;;;;5074616;28;20107;-77
2023/06/01 08:52:21;;;;;;;7.70;4.05;;;30.00;99.90;;;;;;5092426;28;20024;-78
2023/06/01 08:54:48;;;;;;;12.65;4.00;;;29.20;99.90;;;;;;5093001;28;20067;-77
2023/06/01 08:57:15;;;;;;;9.10;4.30;;;28.90;99.90;;;;;;5092225;28;20483;-77
2023/06/01 08:59:42;;;;;;;8.93;4.05;;;29.00;99.90;;;;;;5092916;28;20066;-77
2023/06/01 09:02:09;;;;;;;6.95;3.63;;;29.00;99.90;;;;;;5093026;28;20085;-76
2023/06/01 09:04:38;;;;;;;6.32;3.83;;;28.50;99.90;;;;;;5092408;28;20020;-77
2023/06/01 09:07:04;;;;;;;8.88;3.72;;;29.00;99.90;;;;;;5092185;28;20040;-77
2023/06/01 09:09:33;;;;;;;7.43;4.18;;;29.10;99.90;;;;;;5091783;28;20112;-77
2023/06/01 09:12:25;;;;;;;5.70;3.78;;;28.30;99.90;;;;;;5092335;28;20028;-76
2023/06/01 09:15:17;;;;;;;12.77;4.10;;;28.30;99.90;;;;;;5092486;28;20127;-77
2023/06/01 09:17:47;;;;;;;6.03;3.45;;;28.20;99.90;;;;;;5092273;28;20020;-76
2023/06/01 09:20:21;;;;;;;6.38;3.58;;;27.60;99.90;;;;;;5091875;28;20081;-77
2023/06/01 09:22:47;;;;;;;8.15;3.72;;;27.90;99.90;;;;;;5092054;28;20119;-77
2023/06/01 09:25:14;;;;;;;7.72;3.72;;;27.70;99.90;;;;;;5092505;28;20024;-77
2023/06/01 09:27:51;;;;;;;8.45;3.30;;;28.20;99.90;;;;;;5091855;28;20028;-78
2023/06/01 09:30:20;;;;;;;7.75;3.65;;;28.20;99.90;;;;;;5092156;28;20024;-76
2023/06/01 09:32:53;;;;;;;9.38;3.05;;;27.70;99.90;;;;;;5091879;28;20046;-77
2023/06/01 09:35:41;;;;;;;6.88;3.83;;;27.70;99.90;;;;;;5092403;28;20118;-77
2023/06/01 09:38:08;;;;;;;8.20;3.58;;;27.90;99.90;;;;;;5091885;28;20024;-77
2023/06/01 09:40:34;;;;;;;;;;;27.80;99.90;;;;;;5092352;28;20066;-77
2023/06/01 09:43:02;;;;;;;9.10;3.33;;;27.90;99.90;;;;;;5092161;28;19904;-78
2023/06/01 09:45:31;;;;;;;23.88;4.13;;;27.60;99.90;;;;;;5092225;28;20032;-77
2023/06/01 09:48:20;;;;;;;6.85;3.50;;;27.70;99.90;;;;;;5092243;28;20031;-77
2023/06/01 09:50:46;;;;;;;7.78;3.90;;;27.60;99.90;;;;;;5092179;28;20107;-76
2023/06/01 09:53:13;;;;;;;8.52;3.80;;;27.40;99.90;;;;;;5091405;28;20032;-77
2023/06/01 09:55:58;;;;;;;9.10;3.22;;;27.50;99.90;;;;;;5091728;28;20020;-76
2023/06/01 09:58:24;;;;;;;8.20;4.30;;;26.90;99.90;;;;;;5091851;28;20165;-77
2023/06/01 10:00:51;;;;;;;11.05;4.00;;;26.70;99.90;;;;;;5107087;28;20028;-77
2023/06/01 10:03:19;;;;;;;7.70;3.80;;;26.80;99.90;;;;;;5091370;28;20053;-76
2023/06/01 10:05:47;;;;;;;7.68;3.90;;;26.70;99.90;;;;;;5073111;28;20028;-77
2023/06/01 10:08:16;;;;;;;6.00;3.47;;;26.50;99.90;;;;;;5091714;28;20103;-77
2023/06/01 10:10:44;;;;;;;7.70;4.30;;;26.50;99.90;;;;;;5091152;28;20056;-77
2023/06/01 10:13:11;;;;;;;10.38;4.80;;;26.60;99.90;;;;;;5091214;28;20032;-76
2023/06/01 10:15:38;;;;;;;11.68;4.22;;;26.70;99.90;;;;;;5091028;28;20040;-76
2023/06/01 10:18:05;;;;;;;7.65;3.95;;;26.90;99.90;;;;;;5091038;28;20035;-77
2023/06/01 10:20:36;;;;;;;7.35;4.05;;;26.60;99.90;;;;;;5091240;28;20032;-76
2023/06/01 10:23:02;;;;;;;9.80;4.35;;;26.80;99.90;;;;;;5091590;28;20076;-77
2023/06/01 10:25:43;;;;;;;7.93;4.28;;;26.70;99.90;;;;;;5091769;28;20020;-75
2023/06/01 10:28:11;;;;;;;7.05;4.00;;;26.70;99.90;;;;;;5091872;28;20031;-75
2023/06/01 10:30:37;;;;;;;11.55;4.22;;;26.50;99.90;;;;;;5091083;28;20112;-76
2023/06/01 10:33:04;;;;;;;7.53;4.22;;;26.40;99.90;;;;;;5091592;28;20032;-76
2023/06/01 10:35:30;;;;;;;7.50;4.35;;;26.20;99.90;;;;;;5091517;28;20139;-76
2023/06/01 10:38:14;;;;;;;8.43;4.03;;;26.30;99.90;;;;;;5091525;28;20043;-77
2023/06/01 10:40:42;;;;;;;8.65;4.97;;;26.60;99.90;;;;;;5091783;28;20101;-76
2023/06/01 10:43:48;;;;;;;9.50;4.50;;;26.60;99.90;;;;;;5091114;28;20016;-77
2023/06/01 10:46:37;;;;;;;13.73;5.03;;;26.20;99.90;;;;;;5090927;28;20033;-76
2023/06/01 10:49:04;;;;;;;8.70;5.28;;;26.10;99.90;;;;;;5090912;28;20032;-75
2023/06/01 10:51:30;;;;;;;8.90;4.80;;;26.00;99.90;;;;;;5105094;28;20115;-76
2023/06/01 10:54:27;;;;;;;10.70;4.85;;;26.00;99.90;;;;;;5090111;28;20028;-76
2023/06/01 10:57:22;;;;;;;9.65;4.57;;;26.10;99.90;;;;;;5090374;28;20040;-78
2023/06/01 11:00:11;;;;;;;6.93;3.90;;;26.40;99.90;;;;;;5105867;28;20177;-76
2023/06/01 11:03:04;;;;;;;17.92;4.70;;;26.30;99.90;;;;;;5090516;28;20472;-77
2023/06/01 11:05:46;;;;;;;9.48;4.13;;;26.40;99.90;;;;;;5069925;28;20035;-79
2023/06/01 11:08:25;;;;;;;6.68;3.90;;;26.30;99.90;;;;;;5093321;28;20070;-77
2023/06/01 11:10:54;;;;;;;6.75;3.50;;;26.50;99.90;;;;;;5093959;28;20052;-77
2023/06/01 11:13:21;;;;;;;9.68;3.35;;;26.80;99.90;;;;;;5094062;28;20020;-77
2023/06/01 11:16:21;;;;;;;6.90;3.72;;;26.70;99.90;;;;;;5094030;28;20044;-78
2023/06/01 11:18:57;;;;;;;11.15;3.60;;;26.30;99.90;;;;;;5095609;28;20016;-79
2023/06/01 11:21:27;;;;;;;10.20;3.28;;;26.50;99.90;;;;;;5095094;28;20016;-78
2023/06/01 11:23:55;;;;;;;8.25;3.10;;;26.30;99.90;;;;;;5094793;28;20028;-77
2023/06/01 11:26:24;;;;;;;7.43;3.38;;;26.50;99.90;;;;;;5095099;28;20047;-76
2023/06/01 11:28:53;;;;;;;8.73;4.47;;;26.30;99.90;;;;;;5076658;28;20124;-78
2023/06/01 11:31:20;;;;;;;6.70;4.10;;;26.70;99.90;;;;;;5095782;28;20028;-78
2023/06/01 11:33:56;;;;;;;11.73;3.60;;;26.50;99.90;;;;;;5094976;28;20107;-78
2023/06/01 11:36:26;;;;;;;7.57;3.85;;;26.80;99.90;;;;;;5094798;28;20032;-78
2023/06/01 11:38:55;;;;;;;7.53;3.72;;;27.00;99.90;;;;;;5094806;28;20043;-76
2023/06/01 11:41:23;;;;;;;15.00;4.22;;;26.70;99.90;;;;;;5094748;28;20077;-77
2023/06/01 11:43:56;;;;;;;9.93;3.70;;;27.10;99.90;;;;;;5094289;28;20080;-76
2023/06/01 11:46:23;;;;;;;13.85;3.38;;;27.40;99.90;;;;;;5076637;28;20028;-76
2023/06/01 11:49:06;;;;;;;7.55;3.50;;;26.90;99.90;;;;;;5094701;28;20497;-76
2023/06/01 11:51:35;;;;;;;7.22;3.40;;;26.90;99.90;;;;;;5095178;28;20030;-76
2023/06/01 11:54:03;;;;;;;6.00;3.15;;;26.90;99.90;;;;;;5095283;28;20028;-77
2023/06/01 11:56:31;;;;;;;6.22;3.35;;;26.90;99.90;;;;;;5094770;28;20470;-76
2023/06/01 11:59:01;;;;;;;5.68;3.10;;;27.00;99.90;;;;;;5095089;28;20050;-76
2023/06/01 12:01:28;;;;;;;7.57;3.50;;;27.30;99.90;;;;;;5094737;28;20530;-75
2023/06/01 12:03:56;;;;;;;5.75;3.00;;;26.90;99.90;;;;;;5094709;28;20495;-76
2023/06/01 12:06:25;;;;;;;5.97;3.15;;;26.90;99.90;;;;;;5094541;28;20028;-76
2023/06/01 12:08:54;;;;;;;16.27;4.30;;;27.00;99.90;;;;;;5094471;28;20032;-78
2023/06/01 12:11:26;;;;;;;10.80;3.55;;;27.20;99.90;;;;;;5094977;28;20032;-77
2023/06/01 12:13:54;;;;;;;5.57;3.33;;;27.30;99.90;;;;;;5094905;28;20050;-76
2023/06/01 12:16:21;;;;;;;10.43;3.38;;;27.70;99.90;;;;;;5095123;28;20020;-76
2023/06/01 12:18:47;;;;;;;4.97;3.00;;;27.50;99.90;;;;;;5094703;28;20541;-76
2023/06/01 12:21:14;;;;;;;8.20;3.30;;;27.50;99.90;;;;;;5095050;28;20028;-77
2023/06/01 12:23:41;;;;;;;5.30;3.10;;;27.30;99.90;;;;;;5094779;28;20064;-77
2023/06/01 12:26:08;;;;;;;7.90;3.00;;;27.60;99.90;;;;;;5110380;28;20236;-76
2023/06/01 12:28:54;;;;;;;6.05;2.95;;;27.90;99.90;;;;;;5076444;28;20017;-76
2023/06/01 12:31:21;;;;;;;5.88;3.33;;;27.90;99.90;;;;;;5094689;28;20077;-76
2023/06/01 12:33:51;;;;;;;6.45;3.30;;;27.80;99.90;;;;;;5094389;28;20055;-76
2023/06/01 12:36:34;;;;;;;6.43;3.08;;;27.90;99.90;;;;;;5094523;28;20101;-78
2023/06/01 12:39:03;;;;;;;7.63;3.28;;;28.20;99.90;;;;;;5076303;28;20031;-77
2023/06/01 12:41:30;;;;;;;6.78;2.88;;;28.10;99.90;;;;;;5095031;28;20020;-77
2023/06/01 12:43:57;;;;;;;9.98;3.53;;;28.30;99.90;;;;;;5094434;28;20024;-77
2023/06/01 12:46:27;;;;;;;9.75;3.20;;;28.30;99.90;;;;;;5094927;28;20483;-77
2023/06/01 12:49:10;;;;;;;9.15;3.45;;;28.10;99.90;;;;;;5093845;28;20429;-77
2023/06/01 12:51:36;;;;;;;6.85;3.20;;;28.40;99.90;;;;;;5094186;28;20085;-78
2023/06/01 12:54:02;;;;;;;10.32;3.20;;;28.20;99.90;;;;;;5093621;28;20414;-76
2023/06/01 12:56:29;;;;;;;9.07;3.40;;;28.00;99.90;;;;;;5093978;28;20129;-76
2023/06/01 12:58:56;;;;;;;7.53;3.38;;;27.70;99.90;;;;;;5094089;28;20054;-74